sensor_id;sensor_type;location;lat;lon;timestamp;temperature;humidity
8928;DHT22;4499;48.304;11.902;2022-09-01T00:00:08;14.20;99.90
8928;DHT22;4499;48.304;11.902;2022-09-01T00:02:39;14.20;99.90
8928;DHT22;4499;48.304;11.902;2022-09-01T00:05:09;14.20;99.90
8928;DHT22;4499;48.304;11.902;2022-09-01T00:07:38;14.20;99.90
8928;DHT22;4499;48.304;11.902;2022-09-01T00:10:09;14.20;99.90
8928;DHT22;4499;48.304;11.902;2022-09-01T00:12:37;14.20;99.90
8928;DHT22;4499;48.304;11.902;2022-09-01T00:15:07;14.20;99.90
8928;DHT22;4499;48.304;11.902;2022-09-01T00:17:36;14.30;99.90
8928;DHT22;4499;48.304;11.902;2022-09-01T00:20:06;14.20;99.90
8928;DHT22;4499;48.304;11.902;2022-09-01T00:22:35;14.20;99.90
8928;DHT22;4499;48.304;11.902;2022-09-01T00:25:04;14.20;99.90
8928;DHT22;4499;48.304;11.902;2022-09-01T00:27:35;14.20;99.90
8928;DHT22;4499;48.304;11.902;2022-09-01T00:30:06;14.30;99.90
8928;DHT22;4499;48.304;11.902;2022-09-01T00:32:35;14.30;99.90
8928;DHT22;4499;48.304;11.902;2022-09-01T00:35:03;14.20;99.90
8928;DHT22;4499;48.304;11.902;2022-09-01T00:37:34;14.30;99.90
8928;DHT22;4499;48.304;11.902;2022-09-01T00:40:03;14.30;99.90
8928;DHT22;4499;48.304;11.902;2022-09-01T00:42:36;14.30;99.90
8928;DHT22;4499;48.304;11.902;2022-09-01T00:45:07;14.30;99.90
8928;DHT22;4499;48.304;11.902;2022-09-01T00:47:36;14.30;99.90
8928;DHT22;4499;48.304;11.902;2022-09-01T00:50:05;14.20;99.90
8928;DHT22;4499;48.304;11.902;2022-09-01T00:52:36;14.20;99.90
8928;DHT22;4499;48.304;11.902;2022-09-01T00:55:11;14.20;99.90
8928;DHT22;4499;48.304;11.902;2022-09-01T00:57:41;14.20;99.90
8928;DHT22;4499;48.304;11.902;2022-09-01T01:00:16;14.20;99.90
8928;DHT22;4499;48.304;11.902;2022-09-01T01:02:47;14.20;99.90
8928;DHT22;4499;48.304;11.902;2022-09-01T01:05:22;14.10;99.90
8928;DHT22;4499;48.304;11.902;2022-09-01T01:07:54;14.10;99.90
8928;DHT22;4499;48.304;11.902;2022-09-01T01:10:23;14.10;99.90
8928;DHT22;4499;48.304;11.902;2022-09-01T01:12:53;14.10;99.90
8928;DHT22;4499;48.304;11.902;2022-09-01T01:15:22;14.10;99.90
8928;DHT22;4499;48.304;11.902;2022-09-01T01:17:50;14.10;99.90
8928;DHT22;4499;48.304;11.902;2022-09-01T01:20:19;14.10;99.90
8928;DHT22;4499;48.304;11.902;2022-09-01T01:23:12;14.10;99.90
8928;DHT22;4499;48.304;11.902;2022-09-01T01:25:51;14.10;99.90
8928;DHT22;4499;48.304;11.902;2022-09-01T01:28:25;14.10;99.90
8928;DHT22;4499;48.304;11.902;2022-09-01T01:30:59;14.10;99.90
8928;DHT22;4499;48.304;11.902;2022-09-01T01:33:33;14.10;99.90
8928;DHT22;4499;48.304;11.902;2022-09-01T01:36:11;14.10;99.90
8928;DHT22;4499;48.304;11.902;2022-09-01T01:38:40;14.10;99.90
8928;DHT22;4499;48.304;11.902;2022-09-01T01:41:11;14.10;99.90
8928;DHT22;4499;48.304;11.902;2022-09-01T01:43:40;14.10;99.90
8928;DHT22;4499;48.304;11.902;2022-09-01T01:46:09;14.10;99.90
8928;DHT22;4499;48.304;11.902;2022-09-01T01:48:41;14.10;99.90
8928;DHT22;4499;48.304;11.902;2022-09-01T01:51:09;14.10;99.90
8928;DHT22;4499;48.304;11.902;2022-09-01T01:53:39;14.10;99.90
8928;DHT22;4499;48.304;11.902;2022-09-01T01:56:10;14.10;99.90
8928;DHT22;4499;48.304;11.902;2022-09-01T01:58:39;14.10;99.90
8928;DHT22;4499;48.304;11.902;2022-09-01T02:01:08;14.00;99.90
8928;DHT22;4499;48.304;11.902;2022-09-01T02:03:38;14.00;99.90
8928;DHT22;4499;48.304;11.902;2022-09-01T02:06:08;14.00;99.90
8928;DHT22;4499;48.304;11.902;2022-09-01T02:08:39;14.00;99.90
8928;DHT22;4499;48.304;11.902;2022-09-01T02:11:12;14.00;99.90
8928;DHT22;4499;48.304;11.902;2022-09-01T02:13:43;13.90;99.90
8928;DHT22;4499;48.304;11.902;2022-09-01T02:16:12;13.90;99.90
8928;DHT22;4499;48.304;11.902;2022-09-01T02:18:45;13.90;99.90
8928;DHT22;4499;48.304;11.902;2022-09-01T02:21:15;13.80;99.90
8928;DHT22;4499;48.304;11.902;2022-09-01T02:23:46;13.80;99.90
8928;DHT22;4499;48.304;11.902;2022-09-01T02:26:16;13.70;99.90
8928;DHT22;4499;48.304;11.902;2022-09-01T02:28:47;13.70;99.90
8928;DHT22;4499;48.304;11.902;2022-09-01T02:31:22;13.60;99.90
8928;DHT22;4499;48.304;11.902;2022-09-01T02:33:50;13.60;99.90
8928;DHT22;4499;48.304;11.902;2022-09-01T02:36:20;13.50;99.90
8928;DHT22;4499;48.304;11.902;2022-09-01T02:38:49;13.50;99.90
8928;DHT22;4499;48.304;11.902;2022-09-01T02:41:22;13.50;99.90
8928;DHT22;4499;48.304;11.902;2022-09-01T02:43:55;13.40;99.90
8928;DHT22;4499;48.304;11.902;2022-09-01T02:46:23;13.40;99.90
8928;DHT22;4499;48.304;11.902;2022-09-01T02:48:52;13.40;99.90
8928;DHT22;4499;48.304;11.902;2022-09-01T02:51:23;13.30;99.90
8928;DHT22;4499;48.304;11.902;2022-09-01T02:53:52;13.30;99.90
8928;DHT22;4499;48.304;11.902;2022-09-01T02:56:23;13.20;99.90
8928;DHT22;4499;48.304;11.902;2022-09-01T02:58:58;13.20;99.90
8928;DHT22;4499;48.304;11.902;2022-09-01T03:01:30;13.20;99.90
8928;DHT22;4499;48.304;11.902;2022-09-01T03:04:04;13.20;99.90
8928;DHT22;4499;48.304;11.902;2022-09-01T03:06:34;13.10;99.90
8928;DHT22;4499;48.304;11.902;2022-09-01T03:09:05;13.10;99.90
8928;DHT22;4499;48.304;11.902;2022-09-01T03:11:40;13.10;99.90
8928;DHT22;4499;48.304;11.902;2022-09-01T03:14:08;13.00;99.90
8928;DHT22;4499;48.304;11.902;2022-09-01T03:16:37;13.00;99.90
8928;DHT22;4499;48.304;11.902;2022-09-01T03:19:07;13.00;99.90
8928;DHT22;4499;48.304;11.902;2022-09-01T03:21:38;13.00;99.90
8928;DHT22;4499;48.304;11.902;2022-09-01T03:24:07;13.00;99.90
8928;DHT22;4499;48.304;11.902;2022-09-01T03:26:36;13.00;99.90
8928;DHT22;4499;48.304;11.902;2022-09-01T03:29:06;13.10;99.90
8928;DHT22;4499;48.304;11.902;2022-09-01T03:31:37;13.10;99.90
8928;DHT22;4499;48.304;11.902;2022-09-01T03:34:07;13.10;99.90
8928;DHT22;4499;48.304;11.902;2022-09-01T03:36:39;13.20;99.90
8928;DHT22;4499;48.304;11.902;2022-09-01T03:39:16;13.20;99.90
8928;DHT22;4499;48.304;11.902;2022-09-01T03:41:45;13.20;99.90
8928;DHT22;4499;48.304;11.902;2022-09-01T03:44:15;13.20;99.90
8928;DHT22;4499;48.304;11.902;2022-09-01T03:46:43;13.20;99.90
8928;DHT22;4499;48.304;11.902;2022-09-01T03:49:11;13.30;99.90
8928;DHT22;4499;48.304;11.902;2022-09-01T03:51:41;13.30;99.90
8928;DHT22;4499;48.304;11.902;2022-09-01T03:54:11;13.30;99.90
8928;DHT22;4499;48.304;11.902;2022-09-01T03:56:41;13.30;99.90
8928;DHT22;4499;48.304;11.902;2022-09-01T03:59:09;13.30;99.90
8928;DHT22;4499;48.304;11.902;2022-09-01T04:01:44;13.30;99.90
8928;DHT22;4499;48.304;11.902;2022-09-01T04:04:13;13.40;99.90
8928;DHT22;4499;48.304;11.902;2022-09-01T04:06:43;13.40;99.90
8928;DHT22;4499;48.304;11.902;2022-09-01T04:09:12;13.40;99.90
8928;DHT22;4499;48.304;11.902;2022-09-01T04:11:40;13.40;99.90
8928;DHT22;4499;48.304;11.902;2022-09-01T04:14:12;13.40;99.90
8928;DHT22;4499;48.304;11.902;2022-09-01T04:16:43;13.40;99.90
8928;DHT22;4499;48.304;11.902;2022-09-01T04:19:33;13.40;99.90
8928;DHT22;4499;48.304;11.902;2022-09-01T04:22:03;13.40;99.90
8928;DHT22;4499;48.304;11.902;2022-09-01T04:24:32;13.40;99.90
8928;DHT22;4499;48.304;11.902;2022-09-01T04:27:02;13.40;99.90
8928;DHT22;4499;48.304;11.902;2022-09-01T04:29:30;13.50;99.90
8928;DHT22;4499;48.304;11.902;2022-09-01T04:32:02;13.50;99.90
8928;DHT22;4499;48.304;11.902;2022-09-01T04:34:32;13.50;99.90
8928;DHT22;4499;48.304;11.902;2022-09-01T04:37:07;13.50;99.90
8928;DHT22;4499;48.304;11.902;2022-09-01T04:39:35;13.50;99.90
8928;DHT22;4499;48.304;11.902;2022-09-01T04:42:05;13.50;99.90
8928;DHT22;4499;48.304;11.902;2022-09-01T04:44:35;13.50;99.90
8928;DHT22;4499;48.304;11.902;2022-09-01T04:47:05;13.50;99.90
8928;DHT22;4499;48.304;11.902;2022-09-01T04:49:37;13.50;99.90
8928;DHT22;4499;48.304;11.902;2022-09-01T04:52:08;13.60;99.90
8928;DHT22;4499;48.304;11.902;2022-09-01T04:54:39;13.60;99.90
8928;DHT22;4499;48.304;11.902;2022-09-01T04:57:07;13.60;99.90
8928;DHT22;4499;48.304;11.902;2022-09-01T04:59:35;13.60;99.90
8928;DHT22;4499;48.304;11.902;2022-09-01T05:02:04;13.60;99.90
8928;DHT22;4499;48.304;11.902;2022-09-01T05:04:36;13.60;99.90
8928;DHT22;4499;48.304;11.902;2022-09-01T05:07:07;13.60;99.90
8928;DHT22;4499;48.304;11.902;2022-09-01T05:09:36;13.70;99.90
8928;DHT22;4499;48.304;11.902;2022-09-01T05:12:05;13.70;99.90
8928;DHT22;4499;48.304;11.902;2022-09-01T05:14:43;13.70;99.90
8928;DHT22;4499;48.304;11.902;2022-09-01T05:17:14;13.80;99.90
8928;DHT22;4499;48.304;11.902;2022-09-01T05:19:45;13.80;99.90
8928;DHT22;4499;48.304;11.902;2022-09-01T05:22:15;13.80;99.90
8928;DHT22;4499;48.304;11.902;2022-09-01T05:24:47;13.80;99.90
8928;DHT22;4499;48.304;11.902;2022-09-01T05:27:21;13.80;99.90
8928;DHT22;4499;48.304;11.902;2022-09-01T05:29:49;13.90;99.90
8928;DHT22;4499;48.304;11.902;2022-09-01T05:32:22;13.90;99.90
8928;DHT22;4499;48.304;11.902;2022-09-01T05:34:52;13.90;99.90
8928;DHT22;4499;48.304;11.902;2022-09-01T05:37:20;14.00;99.90
8928;DHT22;4499;48.304;11.902;2022-09-01T05:39:48;14.00;99.90
8928;DHT22;4499;48.304;11.902;2022-09-01T05:42:18;14.00;99.90
8928;DHT22;4499;48.304;11.902;2022-09-01T05:44:47;14.10;99.90
8928;DHT22;4499;48.304;11.902;2022-09-01T05:47:18;14.10;99.90
8928;DHT22;4499;48.304;11.902;2022-09-01T05:49:49;14.20;99.90
8928;DHT22;4499;48.304;11.902;2022-09-01T05:52:19;14.20;99.90
8928;DHT22;4499;48.304;11.902;2022-09-01T05:54:52;14.30;99.90
8928;DHT22;4499;48.304;11.902;2022-09-01T05:57:22;14.30;99.90
8928;DHT22;4499;48.304;11.902;2022-09-01T06:00:02;14.30;99.90
8928;DHT22;4499;48.304;11.902;2022-09-01T06:02:36;14.30;99.90
8928;DHT22;4499;48.304;11.902;2022-09-01T06:05:08;14.40;99.90
8928;DHT22;4499;48.304;11.902;2022-09-01T06:07:37;14.40;99.90
8928;DHT22;4499;48.304;11.902;2022-09-01T06:10:10;14.40;99.90
8928;DHT22;4499;48.304;11.902;2022-09-01T06:12:40;14.40;99.90
8928;DHT22;4499;48.304;11.902;2022-09-01T06:15:14;14.50;99.90
8928;DHT22;4499;48.304;11.902;2022-09-01T06:17:44;14.50;99.90
8928;DHT22;4499;48.304;11.902;2022-09-01T06:20:14;14.60;99.90
8928;DHT22;4499;48.304;11.902;2022-09-01T06:22:45;14.50;99.90
8928;DHT22;4499;48.304;11.902;2022-09-01T06:25:14;14.60;99.90
8928;DHT22;4499;48.304;11.902;2022-09-01T06:27:43;14.70;99.90
8928;DHT22;4499;48.304;11.902;2022-09-01T06:30:12;14.80;99.90
8928;DHT22;4499;48.304;11.902;2022-09-01T06:32:49;14.80;99.90
8928;DHT22;4499;48.304;11.902;2022-09-01T06:35:20;15.00;99.90
8928;DHT22;4499;48.304;11.902;2022-09-01T06:37:50;15.20;99.90
8928;DHT22;4499;48.304;11.902;2022-09-01T06:40:19;15.20;99.90
8928;DHT22;4499;48.304;11.902;2022-09-01T06:42:49;15.40;99.90
8928;DHT22;4499;48.304;11.902;2022-09-01T06:45:20;15.40;99.90
8928;DHT22;4499;48.304;11.902;2022-09-01T06:47:50;15.60;99.90
8928;DHT22;4499;48.304;11.902;2022-09-01T06:50:27;15.70;99.90
8928;DHT22;4499;48.304;11.902;2022-09-01T06:53:16;15.70;99.90
8928;DHT22;4499;48.304;11.902;2022-09-01T06:56:01;15.60;99.90
8928;DHT22;4499;48.304;11.902;2022-09-01T06:58:30;15.60;99.90
8928;DHT22;4499;48.304;11.902;2022-09-01T07:01:05;15.60;99.90
8928;DHT22;4499;48.304;11.902;2022-09-01T07:03:37;15.60;99.90
8928;DHT22;4499;48.304;11.902;2022-09-01T07:06:09;15.50;99.90
8928;DHT22;4499;48.304;11.902;2022-09-01T07:08:58;15.40;99.90
8928;DHT22;4499;48.304;11.902;2022-09-01T07:11:50;15.50;99.90
8928;DHT22;4499;48.304;11.902;2022-09-01T07:14:38;15.50;99.90
8928;DHT22;4499;48.304;11.902;2022-09-01T07:17:26;15.30;99.90
8928;DHT22;4499;48.304;11.902;2022-09-01T07:19:56;15.40;99.90
8928;DHT22;4499;48.304;11.902;2022-09-01T07:22:46;15.50;99.90
8928;DHT22;4499;48.304;11.902;2022-09-01T07:25:32;15.70;99.90
8928;DHT22;4499;48.304;11.902;2022-09-01T07:28:23;15.80;99.90
8928;DHT22;4499;48.304;11.902;2022-09-01T07:31:04;15.80;99.90
8928;DHT22;4499;48.304;11.902;2022-09-01T07:33:55;15.90;99.90
8928;DHT22;4499;48.304;11.902;2022-09-01T07:36:45;16.00;99.90
8928;DHT22;4499;48.304;11.902;2022-09-01T07:39:34;16.20;99.90
8928;DHT22;4499;48.304;11.902;2022-09-01T07:42:20;16.30;99.90
8928;DHT22;4499;48.304;11.902;2022-09-01T07:45:10;16.20;99.90
8928;DHT22;4499;48.304;11.902;2022-09-01T07:47:55;16.10;99.90
8928;DHT22;4499;48.304;11.902;2022-09-01T07:50:29;16.20;99.90
8928;DHT22;4499;48.304;11.902;2022-09-01T07:53:19;16.30;99.90
8928;DHT22;4499;48.304;11.902;2022-09-01T07:55:52;16.50;99.90
8928;DHT22;4499;48.304;11.902;2022-09-01T07:58:24;16.60;99.90
8928;DHT22;4499;48.304;11.902;2022-09-01T08:00:53;16.90;99.90
8928;DHT22;4499;48.304;11.902;2022-09-01T08:03:23;17.20;99.90
8928;DHT22;4499;48.304;11.902;2022-09-01T08:05:52;17.40;99.90
8928;DHT22;4499;48.304;11.902;2022-09-01T08:08:24;17.60;99.90
8928;DHT22;4499;48.304;11.902;2022-09-01T08:10:56;17.90;99.90
8928;DHT22;4499;48.304;11.902;2022-09-01T08:13:32;18.00;99.90
8928;DHT22;4499;48.304;11.902;2022-09-01T08:16:08;18.10;99.90
8928;DHT22;4499;48.304;11.902;2022-09-01T08:18:45;18.10;99.90
8928;DHT22;4499;48.304;11.902;2022-09-01T08:21:16;18.30;99.90
8928;DHT22;4499;48.304;11.902;2022-09-01T08:23:49;18.50;99.90
8928;DHT22;4499;48.304;11.902;2022-09-01T08:26:21;19.00;99.90
8928;DHT22;4499;48.304;11.902;2022-09-01T08:28:49;19.30;99.90
8928;DHT22;4499;48.304;11.902;2022-09-01T08:31:22;19.70;99.90
8928;DHT22;4499;48.304;11.902;2022-09-01T08:33:51;20.40;99.90
8928;DHT22;4499;48.304;11.902;2022-09-01T08:36:21;20.80;99.90
8928;DHT22;4499;48.304;11.902;2022-09-01T08:38:51;20.20;99.90
8928;DHT22;4499;48.304;11.902;2022-09-01T08:41:31;19.80;99.90
8928;DHT22;4499;48.304;11.902;2022-09-01T08:44:12;19.40;99.90
8928;DHT22;4499;48.304;11.902;2022-09-01T08:46:42;19.30;99.90
8928;DHT22;4499;48.304;11.902;2022-09-01T08:49:14;19.70;99.90
8928;DHT22;4499;48.304;11.902;2022-09-01T08:51:55;19.90;99.90
8928;DHT22;4499;48.304;11.902;2022-09-01T08:54:33;19.90;99.90
8928;DHT22;4499;48.304;11.902;2022-09-01T08:57:08;20.00;99.90
8928;DHT22;4499;48.304;11.902;2022-09-01T08:59:38;20.10;99.90
8928;DHT22;4499;48.304;11.902;2022-09-01T09:02:21;20.10;99.90
8928;DHT22;4499;48.304;11.902;2022-09-01T09:04:58;19.80;99.90
8928;DHT22;4499;48.304;11.902;2022-09-01T09:07:40;19.60;99.90
8928;DHT22;4499;48.304;11.902;2022-09-01T09:10:15;19.70;99.90
8928;DHT22;4499;48.304;11.902;2022-09-01T09:12:59;20.10;99.90
8928;DHT22;4499;48.304;11.902;2022-09-01T09:15:39;20.40;99.90
8928;DHT22;4499;48.304;11.902;2022-09-01T09:18:16;20.70;99.90
8928;DHT22;4499;48.304;11.902;2022-09-01T09:21:10;20.70;99.90
8928;DHT22;4499;48.304;11.902;2022-09-01T09:23:44;20.50;99.90
8928;DHT22;4499;48.304;11.902;2022-09-01T09:26:13;21.00;99.90
8928;DHT22;4499;48.304;11.902;2022-09-01T09:28:49;21.80;99.90
8928;DHT22;4499;48.304;11.902;2022-09-01T09:31:32;22.00;99.90
8928;DHT22;4499;48.304;11.902;2022-09-01T09:34:02;22.50;99.90
8928;DHT22;4499;48.304;11.902;2022-09-01T09:36:35;22.80;99.90
8928;DHT22;4499;48.304;11.902;2022-09-01T09:39:07;22.90;99.90
8928;DHT22;4499;48.304;11.902;2022-09-01T09:41:37;23.90;99.90
8928;DHT22;4499;48.304;11.902;2022-09-01T09:44:18;24.20;99.90
8928;DHT22;4499;48.304;11.902;2022-09-01T09:46:48;24.20;99.90
8928;DHT22;4499;48.304;11.902;2022-09-01T09:49:20;25.00;99.90
8928;DHT22;4499;48.304;11.902;2022-09-01T09:52:15;24.50;99.90
8928;DHT22;4499;48.304;11.902;2022-09-01T09:55:03;23.50;99.90
8928;DHT22;4499;48.304;11.902;2022-09-01T09:57:37;23.00;99.90
8928;DHT22;4499;48.304;11.902;2022-09-01T10:00:18;22.40;99.90
8928;DHT22;4499;48.304;11.902;2022-09-01T10:02:53;22.20;99.90
8928;DHT22;4499;48.304;11.902;2022-09-01T10:05:33;22.80;99.90
8928;DHT22;4499;48.304;11.902;2022-09-01T10:08:03;24.00;99.90
8928;DHT22;4499;48.304;11.902;2022-09-01T10:10:38;25.70;99.90
8928;DHT22;4499;48.304;11.902;2022-09-01T10:13:12;26.60;99.90
8928;DHT22;4499;48.304;11.902;2022-09-01T10:15:46;27.20;97.40
8928;DHT22;4499;48.304;11.902;2022-09-01T10:18:19;27.80;96.60
8928;DHT22;4499;48.304;11.902;2022-09-01T10:20:57;28.60;95.10
8928;DHT22;4499;48.304;11.902;2022-09-01T10:23:28;29.40;93.70
8928;DHT22;4499;48.304;11.902;2022-09-01T10:26:01;29.10;91.10
8928;DHT22;4499;48.304;11.902;2022-09-01T10:28:39;28.40;90.50
8928;DHT22;4499;48.304;11.902;2022-09-01T10:31:19;28.80;92.00
8928;DHT22;4499;48.304;11.902;2022-09-01T10:33:48;29.30;90.40
8928;DHT22;4499;48.304;11.902;2022-09-01T10:36:17;29.40;91.50
8928;DHT22;4499;48.304;11.902;2022-09-01T10:38:50;29.80;88.10
8928;DHT22;4499;48.304;11.902;2022-09-01T10:41:47;30.00;90.40
8928;DHT22;4499;48.304;11.902;2022-09-01T10:44:27;30.10;85.20
8928;DHT22;4499;48.304;11.902;2022-09-01T10:47:02;30.10;85.50
8928;DHT22;4499;48.304;11.902;2022-09-01T10:49:58;30.20;87.20
8928;DHT22;4499;48.304;11.902;2022-09-01T10:52:53;30.20;83.70
8928;DHT22;4499;48.304;11.902;2022-09-01T10:55:24;28.20;84.40
8928;DHT22;4499;48.304;11.902;2022-09-01T10:58:13;27.10;90.50
8928;DHT22;4499;48.304;11.902;2022-09-01T11:01:09;26.30;90.70
8928;DHT22;4499;48.304;11.902;2022-09-01T11:03:55;24.90;92.50
8928;DHT22;4499;48.304;11.902;2022-09-01T11:06:55;24.50;94.30
8928;DHT22;4499;48.304;11.902;2022-09-01T11:09:42;24.00;94.80
8928;DHT22;4499;48.304;11.902;2022-09-01T11:12:35;23.80;95.30
8928;DHT22;4499;48.304;11.902;2022-09-01T11:15:32;23.20;95.60
8928;DHT22;4499;48.304;11.902;2022-09-01T11:18:06;23.10;94.80
8928;DHT22;4499;48.304;11.902;2022-09-01T11:20:37;22.40;96.50
8928;DHT22;4499;48.304;11.902;2022-09-01T11:23:11;22.10;98.40
8928;DHT22;4499;48.304;11.902;2022-09-01T11:25:42;22.00;99.70
8928;DHT22;4499;48.304;11.902;2022-09-01T11:28:37;22.00;99.60
8928;DHT22;4499;48.304;11.902;2022-09-01T11:31:29;22.20;99.90
8928;DHT22;4499;48.304;11.902;2022-09-01T11:34:16;22.00;99.90
8928;DHT22;4499;48.304;11.902;2022-09-01T11:36:57;22.00;99.90
8928;DHT22;4499;48.304;11.902;2022-09-01T11:39:32;22.10;99.90
8928;DHT22;4499;48.304;11.902;2022-09-01T11:42:06;22.10;99.90
8928;DHT22;4499;48.304;11.902;2022-09-01T11:44:43;21.80;99.90
8928;DHT22;4499;48.304;11.902;2022-09-01T11:47:16;22.10;99.90
8928;DHT22;4499;48.304;11.902;2022-09-01T11:49:51;21.90;99.90
8928;DHT22;4499;48.304;11.902;2022-09-01T11:52:23;21.90;99.90
8928;DHT22;4499;48.304;11.902;2022-09-01T11:54:53;22.00;99.90
8928;DHT22;4499;48.304;11.902;2022-09-01T11:57:30;22.00;99.90
8928;DHT22;4499;48.304;11.902;2022-09-01T11:59:59;22.20;99.90
8928;DHT22;4499;48.304;11.902;2022-09-01T12:02:30;22.30;99.90
8928;DHT22;4499;48.304;11.902;2022-09-01T12:05:23;22.60;99.90
8928;DHT22;4499;48.304;11.902;2022-09-01T12:07:53;22.50;99.90
8928;DHT22;4499;48.304;11.902;2022-09-01T12:10:30;22.40;99.90
8928;DHT22;4499;48.304;11.902;2022-09-01T12:13:01;22.40;99.90
8928;DHT22;4499;48.304;11.902;2022-09-01T12:15:30;22.00;99.90
8928;DHT22;4499;48.304;11.902;2022-09-01T12:18:16;22.20;99.90
8928;DHT22;4499;48.304;11.902;2022-09-01T12:20:47;22.60;99.90
8928;DHT22;4499;48.304;11.902;2022-09-01T12:23:25;22.90;99.90
8928;DHT22;4499;48.304;11.902;2022-09-01T12:25:55;22.80;98.20
8928;DHT22;4499;48.304;11.902;2022-09-01T12:28:26;22.80;99.20
8928;DHT22;4499;48.304;11.902;2022-09-01T12:30:58;22.90;99.20
8928;DHT22;4499;48.304;11.902;2022-09-01T12:33:27;23.30;99.30
8928;DHT22;4499;48.304;11.902;2022-09-01T12:39:19;23.30;98.50
8928;DHT22;4499;48.304;11.902;2022-09-01T12:42:02;23.60;99.50
8928;DHT22;4499;48.304;11.902;2022-09-01T12:44:32;23.70;97.70
8928;DHT22;4499;48.304;11.902;2022-09-01T12:47:03;24.10;96.20
8928;DHT22;4499;48.304;11.902;2022-09-01T12:49:38;24.40;96.80
8928;DHT22;4499;48.304;11.902;2022-09-01T12:52:23;24.50;95.10
8928;DHT22;4499;48.304;11.902;2022-09-01T12:55:08;24.20;95.60
8928;DHT22;4499;48.304;11.902;2022-09-01T12:58:02;24.10;95.60
8928;DHT22;4499;48.304;11.902;2022-09-01T13:00:33;23.10;96.50
8928;DHT22;4499;48.304;11.902;2022-09-01T13:03:07;22.70;96.60
8928;DHT22;4499;48.304;11.902;2022-09-01T13:05:41;22.80;98.00
8928;DHT22;4499;48.304;11.902;2022-09-01T13:08:12;23.00;98.70
8928;DHT22;4499;48.304;11.902;2022-09-01T13:10:44;22.80;96.40
8928;DHT22;4499;48.304;11.902;2022-09-01T13:13:13;22.60;97.10
8928;DHT22;4499;48.304;11.902;2022-09-01T13:15:43;22.90;96.90
8928;DHT22;4499;48.304;11.902;2022-09-01T13:18:20;22.80;97.30
8928;DHT22;4499;48.304;11.902;2022-09-01T13:20:50;22.80;96.70
8928;DHT22;4499;48.304;11.902;2022-09-01T13:23:22;22.60;97.30
8928;DHT22;4499;48.304;11.902;2022-09-01T13:25:52;22.40;97.60
8928;DHT22;4499;48.304;11.902;2022-09-01T13:28:20;22.30;97.80
8928;DHT22;4499;48.304;11.902;2022-09-01T13:30:56;22.20;97.50
8928;DHT22;4499;48.304;11.902;2022-09-01T13:33:45;22.20;96.20
8928;DHT22;4499;48.304;11.902;2022-09-01T13:36:33;22.20;97.30
8928;DHT22;4499;48.304;11.902;2022-09-01T13:39:15;22.40;97.70
8928;DHT22;4499;48.304;11.902;2022-09-01T13:41:45;22.50;96.70
8928;DHT22;4499;48.304;11.902;2022-09-01T13:44:14;22.50;96.40
8928;DHT22;4499;48.304;11.902;2022-09-01T13:46:43;22.70;97.70
8928;DHT22;4499;48.304;11.902;2022-09-01T13:49:32;22.90;97.30
8928;DHT22;4499;48.304;11.902;2022-09-01T13:52:20;23.00;96.60
8928;DHT22;4499;48.304;11.902;2022-09-01T13:54:50;23.10;95.10
8928;DHT22;4499;48.304;11.902;2022-09-01T13:57:19;22.90;95.10
8928;DHT22;4499;48.304;11.902;2022-09-01T13:59:48;22.60;98.40
8928;DHT22;4499;48.304;11.902;2022-09-01T14:02:16;22.60;96.30
8928;DHT22;4499;48.304;11.902;2022-09-01T14:04:44;22.90;95.80
8928;DHT22;4499;48.304;11.902;2022-09-01T14:07:13;23.20;93.80
8928;DHT22;4499;48.304;11.902;2022-09-01T14:09:41;23.50;93.50
8928;DHT22;4499;48.304;11.902;2022-09-01T14:12:10;23.70;95.40
8928;DHT22;4499;48.304;11.902;2022-09-01T14:14:39;23.70;95.50
8928;DHT22;4499;48.304;11.902;2022-09-01T14:17:27;23.00;94.50
8928;DHT22;4499;48.304;11.902;2022-09-01T14:19:58;22.50;95.60
8928;DHT22;4499;48.304;11.902;2022-09-01T14:22:26;21.80;95.40
8928;DHT22;4499;48.304;11.902;2022-09-01T14:24:55;21.60;95.40
8928;DHT22;4499;48.304;11.902;2022-09-01T14:27:23;21.60;95.50
8928;DHT22;4499;48.304;11.902;2022-09-01T14:29:53;22.00;94.10
8928;DHT22;4499;48.304;11.902;2022-09-01T14:32:21;22.50;95.20
8928;DHT22;4499;48.304;11.902;2022-09-01T14:34:53;22.60;95.10
8928;DHT22;4499;48.304;11.902;2022-09-01T14:37:22;23.10;95.10
8928;DHT22;4499;48.304;11.902;2022-09-01T14:39:50;23.40;93.60
8928;DHT22;4499;48.304;11.902;2022-09-01T14:42:19;23.30;92.90
8928;DHT22;4499;48.304;11.902;2022-09-01T14:44:47;23.10;91.90
8928;DHT22;4499;48.304;11.902;2022-09-01T14:47:17;22.60;92.20
8928;DHT22;4499;48.304;11.902;2022-09-01T14:49:46;22.20;93.30
8928;DHT22;4499;48.304;11.902;2022-09-01T14:52:14;21.90;92.00
8928;DHT22;4499;48.304;11.902;2022-09-01T14:54:43;21.80;91.80
8928;DHT22;4499;48.304;11.902;2022-09-01T14:57:12;21.60;93.10
8928;DHT22;4499;48.304;11.902;2022-09-01T15:00:02;21.40;93.80
8928;DHT22;4499;48.304;11.902;2022-09-01T15:02:35;21.30;93.50
8928;DHT22;4499;48.304;11.902;2022-09-01T15:05:06;21.30;96.00
8928;DHT22;4499;48.304;11.902;2022-09-01T15:07:35;21.20;97.30
8928;DHT22;4499;48.304;11.902;2022-09-01T15:10:05;21.20;97.50
8928;DHT22;4499;48.304;11.902;2022-09-01T15:12:33;21.30;96.50
8928;DHT22;4499;48.304;11.902;2022-09-01T15:15:03;21.30;96.40
8928;DHT22;4499;48.304;11.902;2022-09-01T15:17:31;21.50;95.50
8928;DHT22;4499;48.304;11.902;2022-09-01T15:20:01;21.50;94.50
8928;DHT22;4499;48.304;11.902;2022-09-01T15:22:45;21.50;94.90
8928;DHT22;4499;48.304;11.902;2022-09-01T15:25:13;21.30;95.30
8928;DHT22;4499;48.304;11.902;2022-09-01T15:27:42;21.10;94.40
8928;DHT22;4499;48.304;11.902;2022-09-01T15:30:12;21.00;95.50
8928;DHT22;4499;48.304;11.902;2022-09-01T15:32:44;21.10;95.70
8928;DHT22;4499;48.304;11.902;2022-09-01T15:35:18;21.30;95.30
8928;DHT22;4499;48.304;11.902;2022-09-01T15:37:47;21.20;94.50
8928;DHT22;4499;48.304;11.902;2022-09-01T15:40:16;21.00;95.00
8928;DHT22;4499;48.304;11.902;2022-09-01T15:42:45;20.90;95.00
8928;DHT22;4499;48.304;11.902;2022-09-01T15:45:16;20.90;95.80
8928;DHT22;4499;48.304;11.902;2022-09-01T15:47:45;20.80;95.90
8928;DHT22;4499;48.304;11.902;2022-09-01T15:50:15;20.70;96.40
8928;DHT22;4499;48.304;11.902;2022-09-01T15:52:51;20.50;95.70
8928;DHT22;4499;48.304;11.902;2022-09-01T15:55:24;20.30;95.50
8928;DHT22;4499;48.304;11.902;2022-09-01T15:57:53;20.20;96.00
8928;DHT22;4499;48.304;11.902;2022-09-01T16:00:23;20.30;96.70
8928;DHT22;4499;48.304;11.902;2022-09-01T16:02:52;20.20;96.50
8928;DHT22;4499;48.304;11.902;2022-09-01T16:05:22;20.20;96.50
8928;DHT22;4499;48.304;11.902;2022-09-01T16:07:53;20.10;96.60
8928;DHT22;4499;48.304;11.902;2022-09-01T16:10:28;20.10;96.70
8928;DHT22;4499;48.304;11.902;2022-09-01T16:13:02;20.00;96.90
8928;DHT22;4499;48.304;11.902;2022-09-01T16:15:31;20.00;97.30
8928;DHT22;4499;48.304;11.902;2022-09-01T16:18:14;20.00;96.30
8928;DHT22;4499;48.304;11.902;2022-09-01T16:20:53;20.00;96.50
8928;DHT22;4499;48.304;11.902;2022-09-01T16:23:30;20.00;94.90
8928;DHT22;4499;48.304;11.902;2022-09-01T16:25:59;20.00;95.10
8928;DHT22;4499;48.304;11.902;2022-09-01T16:28:30;20.00;95.30